Time,TemperatureF,DewpointF,PressureIn,WindDirection,WindDirectionDegrees,WindSpeedMPH,WindSpeedGustMPH,Humidity,HourlyPrecipIn,Conditions,Clouds,dailyrainin,SolarRadiationWatts/m^2,SoftwareType,DateUTC
2013-06-02 00:10:00,69.5,66.8,23.14,SW,234,1.0,1.0,91,0.00,,,0.00,0,Wunderground v.1.15,2013-06-02 04:10:00,
2013-06-02 00:20:00,69.5,66.8,23.14,WSW,241,2.0,2.0,91,0.00,,,0.00,0,Wunderground v.1.15,2013-06-02 04:20:00,
2013-06-02 00:30:00,69.7,67.0,23.14,SW,225,1.0,1.0,91,0.00,,,0.00,0,Wunderground v.1.15,2013-06-02 04:30:00,
2013-06-02 00:40:00,69.7,67.0,23.14,SW,222,1.0,1.0,91,0.00,,,0.00,0,Wunderground v.1.15,2013-06-02 04:40:00,
2013-06-02 00:50:00,69.8,67.1,23.14,SW,236,2.0,2.0,91,0.00,,,0.00,0,Wunderground v.1.15,2013-06-02 04:50:00,
2013-06-02 01:00:00,69.8,67.1,23.14,WSW,254,2.0,2.0,91,0.00,,,0.00,0,Wunderground v.1.15,2013-06-02 05:00:00,
2013-06-02 01:10:00,69.8,67.1,23.14,SSW,207,3.0,3.0,91,0.00,,,0.00,0,Wunderground v.1.15,2013-06-02 05:10:00,
2013-06-02 01:20:00,69.8,67.1,23.14,SSW,209,2.0,2.0,91,0.00,,,0.00,0,Wunderground v.1.15,2013-06-02 05:20:00,
2013-06-02 01:40:00,69.7,66.6,23.14,SSW,199,2.0,3.0,90,0.00,,,0.00,0,Wunderground v.1.15,2013-06-02 05:40:00,
2013-06-02 01:50:00,69.7,66.6,23.14,SSW,200,3.0,3.0,90,0.00,,,0.00,0,Wunderground v.1.15,2013-06-02 05:50:00,
2013-06-02 02:00:00,69.5,66.4,23.14,SW,226,2.0,5.0,90,0.00,,,0.00,0,Wunderground v.1.15,2013-06-02 06:00:00,
2013-06-02 02:10:00,69.5,66.4,23.14,SSW,200,3.0,3.0,90,0.00,,,0.00,0,Wunderground v.1.15,2013-06-02 06:10:00,
2013-06-02 02:20:00,69.3,66.2,23.14,SW,221,2.0,2.0,90,0.00,,,0.00,0,Wunderground v.1.15,2013-06-02 06:20:00,
2013-06-02 02:40:00,69.3,66.2,23.14,SW,214,2.0,5.0,90,0.00,,,0.00,0,Wunderground v.1.15,2013-06-02 06:40:00,
2013-06-02 02:50:00,69.3,66.2,23.14,SW,221,2.0,2.0,90,0.00,,,0.00,0,Wunderground v.1.15,2013-06-02 06:50:00,
2013-06-02 03:00:00,69.3,66.2,23.14,SW,215,1.0,1.0,90,0.00,,,0.00,0,Wunderground v.1.15,2013-06-02 07:00:00,
2013-06-02 03:10:00,69.2,66.1,23.14,SW,235,1.0,2.0,90,0.00,,,0.00,0,Wunderground v.1.15,2013-06-02 07:10:00,
2013-06-02 03:20:00,69.0,65.9,23.14,SW,217,2.0,2.0,90,0.00,,,0.00,0,Wunderground v.1.15,2013-06-02 07:20:00,
2013-06-02 03:30:00,68.8,65.7,23.14,SSW,206,2.0,3.0,90,0.00,,,0.00,0,Wunderground v.1.15,2013-06-02 07:30:00,
2013-06-02 03:40:00,68.8,65.7,23.14,SSW,209,2.0,2.0,90,0.00,,,0.00,0,Wunderground v.1.15,2013-06-02 07:40:00,
2013-06-02 03:50:00,68.7,66.0,23.14,SSW,207,1.0,1.0,91,0.00,,,0.00,0,Wunderground v.1.15,2013-06-02 07:50:00,
2013-06-02 04:10:00,68.7,66.0,23.14,SSW,211,1.0,1.0,91,0.00,,,0.00,0,Wunderground v.1.15,2013-06-02 08:10:00,
2013-06-02 04:20:00,68.5,65.8,23.14,SSW,212,0.0,0.0,91,0.00,,,0.00,0,Wunderground v.1.15,2013-06-02 08:20:00,
2013-06-02 04:40:00,68.7,66.0,23.14,SW,222,1.0,1.0,91,0.00,,,0.00,0,Wunderground v.1.15,2013-06-02 08:40:00,
2013-06-02 04:50:00,68.5,65.8,23.14,SSW,207,1.0,4.0,91,0.00,,,0.01,0,Wunderground v.1.15,2013-06-02 08:50:00,
2013-06-02 05:10:00,68.3,65.6,23.14,SSW,212,2.0,2.0,91,0.00,,,0.01,0,Wunderground v.1.15,2013-06-02 09:10:00,
2013-06-02 05:20:00,68.3,65.6,23.14,SW,214,1.0,1.0,91,0.00,,,0.01,0,Wunderground v.1.15,2013-06-02 09:20:00,
2013-06-02 05:30:00,68.0,65.3,23.14,SSW,205,1.0,4.0,91,0.00,,,0.01,12,Wunderground v.1.15,2013-06-02 09:30:00,
2013-06-02 05:40:00,68.0,65.3,23.14,SW,216,3.0,5.0,91,0.00,,,0.01,12,Wunderground v.1.15,2013-06-02 09:40:00,
2013-06-02 05:50:00,67.8,65.1,23.14,WSW,242,3.0,7.0,91,0.00,,,0.01,5,Wunderground v.1.15,2013-06-02 09:50:00,
2013-06-02 06:10:00,67.7,65.0,23.14,SSW,210,3.0,6.0,91,0.08,,,0.02,12,Wunderground v.1.15,2013-06-02 10:10:00,
2013-06-02 06:20:00,67.5,64.8,23.13,SSW,211,3.0,3.0,91,0.04,,,0.02,16,Wunderground v.1.15,2013-06-02 10:20:00,
2013-06-02 06:40:00,67.5,65.1,23.14,SSW,202,3.0,4.0,92,0.00,,,0.02,23,Wunderground v.1.15,2013-06-02 10:40:00,
2013-06-02 06:50:00,67.3,64.9,23.14,SW,217,2.0,2.0,92,0.00,,,0.02,18,Wunderground v.1.15,2013-06-02 10:50:00,
2013-06-02 07:10:00,67.2,64.8,23.14,SSW,201,2.0,5.0,92,0.00,,,0.03,21,Wunderground v.1.15,2013-06-02 11:10:00,
2013-06-02 07:20:00,67.2,64.8,23.13,SSW,206,1.0,1.0,92,0.14,,,0.05,51,Wunderground v.1.15,2013-06-02 11:20:00,
2013-06-02 07:40:00,67.0,64.6,23.13,SSW,212,1.0,5.0,92,0.04,,,0.05,32,Wunderground v.1.15,2013-06-02 11:40:00,
2013-06-02 07:50:00,67.0,64.6,23.14,SW,217,1.0,4.0,92,0.00,,,0.05,25,Wunderground v.1.15,2013-06-02 11:50:00,
2013-06-02 08:00:00,67.0,64.9,23.14,SSW,196,2.0,2.0,93,0.15,,,0.06,67,Wunderground v.1.15,2013-06-02 12:00:00,
2013-06-02 08:10:00,67.0,64.9,23.13,SSW,198,1.0,1.0,93,0.11,,,0.07,39,Wunderground v.1.15,2013-06-02 12:10:00,
2013-06-02 08:20:00,67.0,64.9,23.14,SSW,205,1.0,1.0,93,0.07,,,0.08,51,Wunderground v.1.15,2013-06-02 12:20:00,
2013-06-02 08:40:00,67.0,64.9,23.13,SSW,193,0.0,0.0,93,0.00,,,0.09,54,Wunderground v.1.15,2013-06-02 12:40:00,
2013-06-02 08:50:00,67.2,65.1,23.13,SSW,202,0.0,0.0,93,0.00,,,0.09,21,Wunderground v.1.15,2013-06-02 12:50:00,
2013-06-02 09:00:00,67.0,64.9,23.13,SSW,194,1.0,1.0,93,0.12,,,0.14,37,Wunderground v.1.15,2013-06-02 13:00:00,
2013-06-02 09:10:00,67.0,64.9,23.13,SSW,194,0.0,0.0,93,0.18,,,0.16,35,Wunderground v.1.15,2013-06-02 13:10:00,
2013-06-02 09:20:00,67.0,64.9,23.13,SSW,194,0.0,0.0,93,0.13,,,0.17,97,Wunderground v.1.15,2013-06-02 13:20:00,
2013-06-02 09:30:00,67.3,65.2,23.13,SSW,192,0.0,0.0,93,0.06,,,0.18,128,Wunderground v.1.15,2013-06-02 13:30:00,
2013-06-02 09:40:00,67.5,65.4,23.13,SSW,192,0.0,0.0,93,0.00,,,0.18,176,Wunderground v.1.15,2013-06-02 13:40:00,
2013-06-02 09:50:00,67.3,65.2,23.12,SSW,192,0.0,0.0,93,0.00,,,0.18,28,Wunderground v.1.15,2013-06-02 13:50:00,
2013-06-02 10:01:00,67.3,64.9,23.12,South,189,0.0,1.0,92,0.15,,,0.20,63,Wunderground v.1.15,2013-06-02 14:01:00,
2013-06-02 10:10:00,67.2,64.8,23.12,South,185,0.0,1.0,92,0.08,,,0.21,53,Wunderground v.1.15,2013-06-02 14:10:00,
2013-06-02 10:20:00,67.0,64.6,23.12,South,185,0.0,0.0,92,0.15,,,0.23,76,Wunderground v.1.15,2013-06-02 14:20:00,
2013-06-02 10:40:00,68.3,66.2,23.12,South,185,0.0,2.0,93,0.00,,,0.23,995,Wunderground v.1.15,2013-06-02 14:40:00,
2013-06-02 10:50:00,68.5,66.1,23.12,South,178,1.0,1.0,92,0.00,,,0.23,267,Wunderground v.1.15,2013-06-02 14:50:00,
2013-06-02 11:10:00,69.8,66.4,23.12,SSW,203,2.0,2.0,89,0.00,,,0.23,415,Wunderground v.1.15,2013-06-02 15:10:00,
2013-06-02 11:20:00,71.2,66.8,23.12,SSW,210,3.0,3.0,86,0.00,,,0.23,1032,Wunderground v.1.15,2013-06-02 15:20:00,
2013-06-02 11:40:00,72.9,66.4,23.12,SSW,209,2.0,2.0,80,0.00,,,0.23,287,Wunderground v.1.15,2013-06-02 15:40:00,
2013-06-02 11:50:00,72.6,66.4,23.12,SSW,209,0.0,0.0,81,0.00,,,0.23,367,Wunderground v.1.15,2013-06-02 15:50:00,
2013-06-02 12:00:00,72.0,65.8,23.12,SW,221,0.0,0.0,81,0.00,,,0.23,322,Wunderground v.1.15,2013-06-02 16:00:00,
2013-06-02 12:10:00,73.1,66.2,23.12,SW,235,1.0,1.0,79,0.00,,,0.23,682,Wunderground v.1.15,2013-06-02 16:10:00,
2013-06-02 12:20:00,74.5,66.8,23.12,SW,217,3.0,3.0,77,0.00,,,0.23,373,Wunderground v.1.15,2013-06-02 16:20:00,
2013-06-02 12:40:00,75.0,65.8,23.12,North,360,4.0,4.0,73,0.00,,,0.23,278,Wunderground v.1.15,2013-06-02 16:40:00,
2013-06-02 12:50:00,75.7,66.4,23.12,WNW,303,4.0,4.0,73,0.00,,,0.23,1071,Wunderground v.1.15,2013-06-02 16:50:00,
2013-06-02 13:10:00,76.4,66.3,23.12,SSW,206,5.0,5.0,71,0.00,,,0.23,292,Wunderground v.1.15,2013-06-02 17:10:00,
2013-06-02 13:20:00,76.0,65.9,23.12,SW,236,4.0,5.0,71,0.00,,,0.23,287,Wunderground v.1.15,2013-06-02 17:20:00,
2013-06-02 13:40:00,77.8,66.0,23.12,SSW,211,5.0,10.0,67,0.00,,,0.24,1023,Wunderground v.1.15,2013-06-02 17:40:00,
2013-06-02 13:50:00,78.5,65.8,23.12,South,182,5.0,5.0,65,0.00,,,0.24,1028,Wunderground v.1.15,2013-06-02 17:50:00,
2013-06-02 14:10:00,79.8,65.2,23.11,SSE,155,4.0,5.0,61,0.00,,,0.24,380,Wunderground v.1.15,2013-06-02 18:10:00,
2013-06-02 14:20:00,79.7,65.1,23.11,SW,216,5.0,8.0,61,0.00,,,0.24,380,Wunderground v.1.15,2013-06-02 18:20:00,
2013-06-02 14:30:00,78.9,64.8,23.11,NNW,327,8.0,8.0,62,0.00,,,0.24,387,Wunderground v.1.15,2013-06-02 18:30:00,
2013-06-02 14:40:00,78.5,64.9,23.11,West,265,6.0,12.0,63,0.00,,,0.24,448,Wunderground v.1.15,2013-06-02 18:40:00,
2013-06-02 14:50:00,78.4,64.3,23.11,West,265,7.0,7.0,62,0.00,,,0.24,211,Wunderground v.1.15,2013-06-02 18:50:00,
2013-06-02 15:10:00,78.2,63.6,23.11,SSE,166,5.0,7.0,61,0.00,,,0.24,301,Wunderground v.1.15,2013-06-02 19:10:00,
2013-06-02 15:20:00,77.8,63.3,23.11,WSW,248,7.0,11.0,61,0.00,,,0.24,308,Wunderground v.1.15,2013-06-02 19:20:00,
2013-06-02 15:40:00,78.5,63.9,23.11,SSW,192,8.0,8.0,61,0.00,,,0.24,330,Wunderground v.1.15,2013-06-02 19:40:00,
2013-06-02 15:50:00,79.3,63.2,23.11,SSW,211,8.0,8.0,58,0.00,,,0.24,418,Wunderground v.1.15,2013-06-02 19:50:00,
2013-06-02 16:10:00,78.0,63.0,23.11,WSW,243,6.0,6.0,60,0.00,,,0.24,250,Wunderground v.1.15,2013-06-02 20:10:00,
2013-06-02 16:20:00,77.5,62.5,23.11,West,265,6.0,6.0,60,0.00,,,0.24,309,Wunderground v.1.15,2013-06-02 20:20:00,
2013-06-02 16:40:00,77.6,62.6,23.11,SSE,160,8.0,18.0,60,0.00,,,0.24,397,Wunderground v.1.15,2013-06-02 20:40:00,
2013-06-02 16:50:00,77.1,62.6,23.11,SSW,194,7.0,7.0,61,0.00,,,0.24,304,Wunderground v.1.15,2013-06-02 20:50:00,
2013-06-02 17:10:00,77.5,62.0,23.11,SSW,203,6.0,6.0,59,0.00,,,0.24,329,Wunderground v.1.15,2013-06-02 21:10:00,
2013-06-02 17:20:00,76.6,61.2,23.11,West,270,7.0,9.0,59,0.00,,,0.24,255,Wunderground v.1.15,2013-06-02 21:20:00,
2013-06-02 17:30:00,76.9,61.0,23.11,SSW,206,9.0,9.0,58,0.00,,,0.24,592,Wunderground v.1.15,2013-06-02 21:30:00,
2013-06-02 17:40:00,77.3,61.4,23.10,WSW,243,7.0,9.0,58,0.00,,,0.24,533,Wunderground v.1.15,2013-06-02 21:40:00,
2013-06-02 17:50:00,77.3,60.9,23.10,SW,230,7.0,9.0,57,0.00,,,0.24,369,Wunderground v.1.15,2013-06-02 21:50:00,
2013-06-02 18:01:00,77.1,61.2,23.10,SSW,198,9.0,9.0,58,0.00,,,0.24,396,Wunderground v.1.15,2013-06-02 22:01:00,
2013-06-02 18:10:00,76.9,61.0,23.10,SW,227,6.0,6.0,58,0.00,,,0.24,234,Wunderground v.1.15,2013-06-02 22:10:00,
2013-06-02 18:20:00,76.6,60.7,23.10,SSW,205,7.0,7.0,58,0.00,,,0.24,271,Wunderground v.1.15,2013-06-02 22:20:00,
2013-06-02 18:40:00,75.7,60.4,23.11,SSW,193,8.0,8.0,59,0.00,,,0.24,47,Wunderground v.1.15,2013-06-02 22:40:00,
2013-06-02 18:50:00,75.2,60.8,23.11,West,277,4.0,6.0,61,0.00,,,0.24,12,Wunderground v.1.15,2013-06-02 22:50:00,
2013-06-02 19:10:00,71.7,60.6,23.11,NW,305,5.0,6.0,68,0.00,,,0.24,118,Wunderground v.1.15,2013-06-02 23:10:00,
2013-06-02 19:20:00,71.4,61.1,23.11,West,268,3.0,3.0,70,0.00,,,0.24,156,Wunderground v.1.15,2013-06-02 23:20:00,
2013-06-02 19:40:00,71.0,61.5,23.11,WNW,301,2.0,2.0,72,0.00,,,0.24,47,Wunderground v.1.15,2013-06-02 23:40:00,
2013-06-02 19:50:00,70.7,61.6,23.11,WNW,301,2.0,2.0,73,0.00,,,0.24,19,Wunderground v.1.15,2013-06-02 23:50:00,
2013-06-02 20:01:00,70.7,62.0,23.11,WSW,239,1.0,1.0,74,0.00,,,0.24,53,Wunderground v.1.15,2013-06-03 00:01:00,
2013-06-02 20:10:00,70.5,62.9,23.11,NW,306,1.0,1.0,77,0.10,,,0.25,51,Wunderground v.1.15,2013-06-03 00:10:00,
2013-06-02 20:20:00,69.8,63.7,23.11,WSW,250,2.0,2.0,81,0.09,,,0.26,35,Wunderground v.1.15,2013-06-03 00:20:00,
2013-06-02 20:40:00,69.2,63.1,23.11,SW,229,1.0,1.0,81,0.00,,,0.26,0,Wunderground v.1.15,2013-06-03 00:40:00,
2013-06-02 20:50:00,69.2,62.8,23.11,SSW,194,1.0,1.0,80,0.00,,,0.26,0,Wunderground v.1.15,2013-06-03 00:50:00,
2013-06-02 21:10:00,69.3,61.8,23.11,South,185,0.0,0.0,77,0.00,,,0.26,0,Wunderground v.1.15,2013-06-03 01:10:00,
2013-06-02 21:20:00,69.5,61.2,23.12,West,277,0.0,0.0,75,0.00,,,0.26,0,Wunderground v.1.15,2013-06-03 01:20:00,
2013-06-02 21:40:00,69.5,60.5,23.12,SSW,205,0.0,0.0,73,0.00,,,0.26,0,Wunderground v.1.15,2013-06-03 01:40:00,
2013-06-02 21:50:00,69.8,60.4,23.12,West,280,0.0,0.0,72,0.00,,,0.26,0,Wunderground v.1.15,2013-06-03 01:50:00,
2013-06-02 22:10:00,66.7,61.4,23.13,WSW,240,0.0,0.0,83,0.12,,,0.31,0,Wunderground v.1.15,2013-06-03 02:10:00,
2013-06-02 22:20:00,66.0,61.4,23.12,WSW,240,0.0,0.0,85,0.05,,,0.31,0,Wunderground v.1.15,2013-06-03 02:20:00,
2013-06-02 22:40:00,65.9,61.3,23.13,SW,223,0.0,0.0,85,0.00,,,0.31,0,Wunderground v.1.15,2013-06-03 02:40:00,
2013-06-02 22:50:00,65.5,60.9,23.13,SSW,213,0.0,0.0,85,0.00,,,0.31,0,Wunderground v.1.15,2013-06-03 02:50:00,
2013-06-02 23:10:00,65.4,61.4,23.13,SW,228,0.0,0.0,87,0.00,,,0.31,0,Wunderground v.1.15,2013-06-03 03:10:00,
2013-06-02 23:20:00,65.2,61.2,23.13,SW,228,0.0,0.0,87,0.00,,,0.31,0,Wunderground v.1.15,2013-06-03 03:20:00,
2013-06-02 23:40:00,65.2,60.6,23.13,WSW,249,0.0,0.0,85,0.00,,,0.31,0,Wunderground v.1.15,2013-06-03 03:40:00,
2013-06-02 23:50:00,65.2,60.2,23.13,WNW,287,0.0,0.0,84,0.00,,,0.31,0,Wunderground v.1.15,2013-06-03 03:50:00,